Time;durP1;ratioP1;P1;durP2;ratioP2;P2;SDS_P1;SDS_P2;PMS_P1;PMS_P2;Temp;Humidity;BMP_temperature;BMP_pressure;BME280_temperature;BME280_humidity;BME280_pressure;Samples;Min_cycle;Max_cycle;Signal;HPM_P1;HPM_P2
2022/01/23 00:00:47;;;;;;;3.90;1.50;;;15.30;77.00;;;;;;4175827;28;20492;-66
2022/01/23 00:03:16;;;;;;;5.22;1.48;;;15.30;77.10;;;;;;4176128;28;20049;-66
2022/01/23 00:05:42;;;;;;;6.45;2.17;;;15.30;77.20;;;;;;4175851;28;20037;-66
2022/01/23 00:08:05;;;;;;;4.80;1.23;;;15.30;77.20;;;;;;4191558;28;20481;-66
2022/01/23 00:10:28;;;;;;;4.25;2.20;;;15.20;77.40;;;;;;4191149;28;20052;-66
2022/01/23 00:12:56;;;;;;;7.78;2.17;;;15.20;77.30;;;;;;4192263;28;20050;-66
2022/01/23 00:17:58;;;;;;;4.20;2.45;;;15.20;77.50;;;;;;4171613;28;20102;-66
2022/01/23 00:20:20;;;;;;;7.35;1.80;;;15.20;77.70;;;;;;4159051;28;20142;-67
2022/01/23 00:22:45;;;;;;;5.90;1.67;;;15.20;77.70;;;;;;4158975;28;20087;-66
2022/01/23 00:30:30;;;;;;;4.90;2.38;;;15.10;77.80;;;;;;4174894;28;20086;-66
2022/01/23 00:32:53;;;;;;;7.05;2.70;;;15.10;78.00;;;;;;4175602;28;20041;-66
2022/01/23 00:35:15;;;;;;;6.68;3.35;;;15.10;77.90;;;;;;4175681;28;20539;-66
2022/01/23 00:37:38;;;;;;;6.90;2.40;;;15.10;78.00;;;;;;4158089;28;20365;-66
2022/01/23 00:40:00;;;;;;;7.13;2.88;;;15.10;78.10;;;;;;4157797;28;20141;-66
2022/01/23 00:42:22;;;;;;;6.05;2.25;;;15.00;78.10;;;;;;4157877;28;20053;-66
2022/01/23 00:44:55;;;;;;;6.13;2.45;;;15.00;78.20;;;;;;4158033;28;20053;-66
2022/01/23 00:47:18;;;;;;;6.88;2.92;;;15.10;78.40;;;;;;4175159;28;20057;-66
2022/01/23 00:49:40;;;;;;;9.88;2.75;;;15.00;78.30;;;;;;4175749;28;20045;-66
2022/01/23 00:52:02;;;;;;;10.68;3.38;;;15.00;78.10;;;;;;4175114;28;20051;-66
2022/01/23 00:54:25;;;;;;;5.30;2.70;;;15.00;78.20;;;;;;4175594;28;20049;-66
2022/01/23 00:56:47;;;;;;;5.93;2.63;;;15.00;78.30;;;;;;4175531;28;20072;-66
2022/01/23 00:59:08;;;;;;;6.10;2.60;;;15.00;78.30;;;;;;4175618;28;20037;-66
2022/01/23 01:01:31;;;;;;;4.03;2.22;;;15.00;78.40;;;;;;4174153;28;20045;-66
2022/01/23 01:03:54;;;;;;;8.82;2.00;;;15.00;78.40;;;;;;4173996;28;20488;-66
2022/01/23 01:06:17;;;;;;;6.95;2.50;;;15.00;78.30;;;;;;4157641;28;20059;-66
2022/01/23 01:08:41;;;;;;;5.88;1.98;;;15.00;78.30;;;;;;4188150;28;20063;-66
2022/01/23 01:11:20;;;;;;;6.20;1.88;;;15.00;78.40;;;;;;4160806;28;20049;-66
2022/01/23 01:13:57;;;;;;;8.40;2.40;;;14.90;78.40;;;;;;4160661;28;20655;-66
2022/01/23 01:16:40;;;;;;;4.28;2.15;;;14.90;79.40;;;;;;4160183;28;20137;-66
2022/01/23 01:30:19;;;;;;;2.58;2.00;;;14.90;79.30;;;;;;4178335;28;20052;-66
2022/01/23 01:32:54;;;;;;;4.18;2.17;;;15.00;79.50;;;;;;4190399;28;20052;-66
2022/01/23 01:35:23;;;;;;;5.68;1.83;;;15.00;79.30;;;;;;4193277;28;20507;-66
2022/01/23 01:37:46;;;;;;;5.68;2.42;;;15.10;79.00;;;;;;4192219;28;20521;-66
2022/01/23 01:40:10;;;;;;;8.00;2.13;;;15.10;78.80;;;;;;4174161;28;20106;-66
2022/01/23 01:42:34;;;;;;;3.40;2.13;;;15.20;78.60;;;;;;4176975;28;20048;-66
2022/01/23 01:44:56;;;;;;;5.57;2.05;;;15.20;78.40;;;;;;4176742;28;20049;-66
2022/01/23 01:47:29;;;;;;;3.17;1.60;;;15.20;78.20;;;;;;4176666;28;20056;-66
2022/01/23 01:50:09;;;;;;;3.15;1.50;;;15.30;78.20;;;;;;4186293;28;20044;-66
2022/01/23 01:52:34;;;;;;;4.30;1.80;;;15.30;78.00;;;;;;4194420;28;20048;-65
2022/01/23 01:55:01;;;;;;;4.05;2.17;;;15.30;78.00;;;;;;4188115;28;20055;-66
2022/01/23 01:57:39;;;;;;;2.67;1.67;;;15.30;77.90;;;;;;4175944;28;20049;-66
2022/01/23 02:00:46;;;;;;;3.53;2.13;;;15.30;77.90;;;;;;4156453;28;20045;-66
2022/01/23 02:08:40;;;;;;;7.38;2.50;;;15.30;78.70;;;;;;4162305;28;20069;-66
2022/01/23 02:11:08;;;;;;;6.88;2.17;;;15.30;77.70;;;;;;4175306;28;20048;-66
2022/01/23 02:13:33;;;;;;;3.72;1.65;;;15.30;77.70;;;;;;4175974;28;20499;-66
2022/01/23 02:22:28;;;;;;;3.33;1.75;;;15.30;77.40;;;;;;4177028;28;20064;-66
2022/01/23 02:51:37;;;;;;;6.72;2.65;;;15.50;76.90;;;;;;4176718;28;20131;-66
2022/01/23 02:54:20;;;;;;;4.80;2.20;;;15.50;76.90;;;;;;4175402;28;20098;-65
2022/01/23 02:56:46;;;;;;;4.47;2.05;;;15.50;77.80;;;;;;4179209;28;20040;-65
2022/01/23 02:59:19;;;;;;;2.20;2.00;;;15.50;77.00;;;;;;4192154;28;20056;-65
2022/01/23 03:01:59;;;;;;;7.18;2.35;;;15.50;77.00;;;;;;4188597;28;20061;-65
2022/01/23 03:04:49;;;;;;;4.78;2.40;;;15.50;77.10;;;;;;4176543;28;20167;-65
2022/01/23 03:10:17;;;;;;;5.85;2.42;;;15.40;77.10;;;;;;4158452;28;20156;-65
2022/01/23 03:15:28;;;;;;;6.70;2.50;;;15.40;77.30;;;;;;4158536;28;20570;-65
2022/01/23 03:26:13;;;;;;;4.68;2.42;;;15.40;77.80;;;;;;4192450;28;20063;-65
2022/01/23 03:28:39;;;;;;;6.35;2.58;;;15.50;77.60;;;;;;4159542;28;20056;-65
2022/01/23 03:31:08;;;;;;;4.57;2.20;;;15.50;77.40;;;;;;4159147;28;20045;-65
2022/01/23 03:33:30;;;;;;;5.60;2.63;;;15.50;77.20;;;;;;4159864;28;20527;-65
2022/01/23 03:35:52;;;;;;;3.10;2.70;;;15.60;76.90;;;;;;4169398;28;20053;-66
2022/01/23 03:38:14;;;;;;;2.72;2.45;;;15.70;76.60;;;;;;4175357;28;20047;-65
2022/01/23 03:40:36;;;;;;;6.15;3.10;;;15.70;76.40;;;;;;4176211;28;20509;-65
2022/01/23 03:43:09;;;;;;;6.22;2.17;;;15.70;76.20;;;;;;4175195;28;20043;-64
2022/01/23 03:45:56;;;;;;;6.57;2.53;;;15.70;76.10;;;;;;4174607;28;20068;-65
2022/01/23 03:50:58;;;;;;;4.72;2.22;;;15.70;76.20;;;;;;4150683;28;20053;-66
2022/01/23 03:53:31;;;;;;;5.47;2.83;;;15.70;76.30;;;;;;4174500;28;20037;-65
2022/01/23 03:55:54;;;;;;;8.38;2.60;;;15.70;76.40;;;;;;4174782;28;20045;-66
2022/01/23 03:58:18;;;;;;;3.78;2.60;;;15.70;76.40;;;;;;4174795;28;20055;-66
2022/01/23 04:00:39;;;;;;;5.80;2.90;;;15.70;76.40;;;;;;4174399;28;20044;-66
2022/01/23 04:03:02;;;;;;;2.75;2.30;;;15.60;76.60;;;;;;4175727;28;20132;-66
2022/01/23 04:05:24;;;;;;;3.30;2.33;;;15.60;77.40;;;;;;4174542;28;20451;-66
2022/01/23 04:07:46;;;;;;;6.57;2.72;;;15.60;76.90;;;;;;4176090;28;20063;-66
2022/01/23 04:10:10;;;;;;;8.25;2.83;;;15.60;77.10;;;;;;4173090;28;20090;-66
2022/01/23 04:12:42;;;;;;;5.05;2.58;;;15.70;76.90;;;;;;4171540;28;20071;-66
2022/01/23 04:15:14;;;;;;;4.57;2.75;;;15.70;76.70;;;;;;4172234;28;20060;-66
2022/01/23 04:20:40;;;;;;;3.42;1.95;;;15.70;76.20;;;;;;4158664;28;20048;-66
2022/01/23 04:33:51;;;;;;;3.53;2.50;;;15.70;76.80;;;;;;4175761;28;20041;-65
2022/01/23 05:00:11;;;;;;;4.50;3.40;;;15.60;77.40;;;;;;4185182;28;20054;-66
2022/01/23 05:03:06;;;;;;;2.95;2.75;;;15.70;77.10;;;;;;4179588;28;20583;-65
2022/01/23 05:05:47;;;;;;;5.15;3.03;;;15.80;76.50;;;;;;4194661;28;20089;-65
2022/01/23 05:08:23;;;;;;;4.68;2.72;;;15.90;76.00;;;;;;4193351;28;20098;-65
2022/01/23 05:10:59;;;;;;;4.43;2.72;;;15.90;75.70;;;;;;4194283;28;20044;-65
2022/01/23 05:13:34;;;;;;;4.32;2.58;;;15.90;75.60;;;;;;4194830;28;20068;-65
2022/01/23 05:15:57;;;;;;;5.57;2.38;;;16.00;75.40;;;;;;4177329;28;20037;-65
2022/01/23 05:18:20;;;;;;;6.88;2.25;;;16.00;75.30;;;;;;4177199;28;20131;-65
2022/01/23 05:20:43;;;;;;;4.38;2.40;;;16.00;75.30;;;;;;4178610;28;20373;-65
2022/01/23 05:23:07;;;;;;;2.97;2.20;;;16.00;75.40;;;;;;4178500;28;20052;-65
2022/01/23 05:25:33;;;;;;;3.40;2.85;;;16.00;75.40;;;;;;4176891;28;20048;-65
2022/01/23 05:27:55;;;;;;;6.30;3.35;;;16.00;75.20;;;;;;4191615;28;20045;-65
2022/01/23 05:30:17;;;;;;;2.72;2.33;;;16.00;75.30;;;;;;4194367;28;20052;-65
2022/01/23 05:32:41;;;;;;;3.95;2.40;;;16.00;75.30;;;;;;4190657;28;20094;-65
2022/01/23 05:35:05;;;;;;;4.00;2.55;;;15.90;75.30;;;;;;4177024;28;20087;-66
2022/01/23 05:37:28;;;;;;;5.50;2.95;;;15.90;75.30;;;;;;4176693;28;20041;-65
2022/01/23 05:39:50;;;;;;;7.40;2.70;;;15.90;75.60;;;;;;4177226;28;20053;-65
2022/01/23 05:42:12;;;;;;;5.30;2.83;;;15.80;75.60;;;;;;4176896;28;20052;-66
2022/01/23 05:44:36;;;;;;;5.78;2.92;;;15.80;75.90;;;;;;4178221;28;20048;-66
2022/01/23 05:46:57;;;;;;;9.82;2.83;;;15.70;75.90;;;;;;4178046;28;20052;-66
2022/01/23 05:49:31;;;;;;;4.88;2.78;;;15.70;76.20;;;;;;4176206;28;20040;-66
2022/01/23 05:52:07;;;;;;;5.18;2.95;;;15.70;76.80;;;;;;4189901;28;20053;-66
2022/01/23 05:54:50;;;;;;;4.57;3.25;;;15.80;76.60;;;;;;4192860;28;20476;-66
2022/01/23 05:57:33;;;;;;;4.20;2.70;;;15.90;76.20;;;;;;4170551;28;20567;-66
2022/01/23 06:00:05;;;;;;;4.22;2.85;;;16.00;75.70;;;;;;4193000;28;20064;-66
2022/01/23 06:02:32;;;;;;;3.03;2.60;;;16.00;75.30;;;;;;4190750;28;20056;-66
2022/01/23 06:04:54;;;;;;;4.20;2.38;;;16.10;75.00;;;;;;4176431;28;20124;-66
2022/01/23 06:07:48;;;;;;;4.63;2.90;;;16.10;74.80;;;;;;4175970;28;20044;-66
2022/01/23 06:10:20;;;;;;;6.28;3.08;;;16.10;74.60;;;;;;4175472;28;20227;-66
2022/01/23 06:12:42;;;;;;;4.25;2.70;;;16.10;75.50;;;;;;4176036;28;20520;-66
2022/01/23 06:15:05;;;;;;;5.07;2.67;;;16.10;74.80;;;;;;4184137;28;20067;-67
2022/01/23 06:17:27;;;;;;;2.95;2.60;;;16.00;74.80;;;;;;4192486;28;20079;-65
2022/01/23 06:20:14;;;;;;;6.15;2.63;;;16.00;75.00;;;;;;4193483;28;20044;-65
2022/01/23 06:22:56;;;;;;;3.22;2.20;;;15.90;75.30;;;;;;4187030;28;20060;-66
2022/01/23 06:25:32;;;;;;;4.60;2.28;;;15.90;75.50;;;;;;4177557;28;20045;-65
2022/01/23 06:28:00;;;;;;;2.80;2.50;;;15.80;75.70;;;;;;4176089;28;20075;-66
2022/01/23 06:30:22;;;;;;;3.58;2.88;;;15.80;76.10;;;;;;4177449;28;20153;-65
2022/01/23 06:32:44;;;;;;;2.30;2.10;;;15.80;76.20;;;;;;4175633;28;20520;-65
2022/01/23 06:35:07;;;;;;;5.97;2.97;;;15.90;76.20;;;;;;4177255;28;20381;-65
2022/01/23 06:37:29;;;;;;;2.58;2.38;;;15.90;76.00;;;;;;4176962;28;20048;-65
2022/01/23 06:39:53;;;;;;;4.47;2.92;;;15.90;75.80;;;;;;4178877;28;20044;-65
2022/01/23 06:42:37;;;;;;;3.03;2.80;;;16.00;75.70;;;;;;4177073;28;20049;-65
2022/01/23 06:45:16;;;;;;;3.80;2.80;;;16.00;75.30;;;;;;4175683;28;20053;-65
2022/01/23 06:47:39;;;;;;;4.97;2.88;;;16.10;75.00;;;;;;4175617;28;20071;-65
2022/01/23 06:50:06;;;;;;;3.72;3.05;;;16.20;74.70;;;;;;4175275;28;20045;-65
2022/01/23 06:52:27;;;;;;;4.88;2.83;;;16.20;74.60;;;;;;4164236;28;20041;-65
2022/01/23 06:54:54;;;;;;;2.17;1.98;;;16.10;74.40;;;;;;4176991;28;20045;-65
2022/01/23 06:57:16;;;;;;;3.08;2.17;;;16.20;74.50;;;;;;4175356;28;20637;-65
2022/01/23 06:59:40;;;;;;;2.47;2.25;;;16.10;74.40;;;;;;4175727;28;20044;-65
2022/01/23 07:02:30;;;;;;;5.22;2.70;;;16.10;74.60;;;;;;4179901;28;20098;-66
2022/01/23 07:05:11;;;;;;;3.10;2.83;;;16.10;75.40;;;;;;4192905;28;20052;-65
2022/01/23 07:07:51;;;;;;;3.42;2.60;;;16.00;75.10;;;;;;4191784;28;20106;-69
2022/01/23 07:10:38;;;;;;;6.72;2.97;;;15.90;75.30;;;;;;4165280;28;20051;-64
2022/01/23 07:13:12;;;;;;;3.83;2.90;;;15.90;77.10;;;;;;4187428;28;20135;-64
2022/01/23 07:15:59;;;;;;;2.78;2.58;;;15.90;76.50;;;;;;4169441;28;20467;-64
2022/01/23 07:18:50;;;;;;;5.63;2.88;;;16.00;76.10;;;;;;4170482;28;20049;-64
2022/01/23 07:21:12;;;;;;;4.63;2.80;;;16.00;75.90;;;;;;4175367;28;20072;-64
2022/01/23 07:23:38;;;;;;;4.85;2.63;;;16.00;75.60;;;;;;4174004;28;20057;-64
2022/01/23 07:26:02;;;;;;;4.72;2.45;;;16.00;75.50;;;;;;4173103;28;20045;-65
2022/01/23 07:28:36;;;;;;;4.15;2.95;;;16.00;75.80;;;;;;4175394;28;20041;-64
2022/01/23 07:31:03;;;;;;;4.60;3.28;;;16.00;75.80;;;;;;4174255;28;20825;-64
2022/01/23 07:33:26;;;;;;;4.60;2.88;;;16.10;75.50;;;;;;4173748;28;20095;-65
2022/01/23 07:35:48;;;;;;;3.00;2.80;;;16.20;75.20;;;;;;4174833;28;20102;-65
2022/01/23 07:38:11;;;;;;;2.67;2.47;;;16.20;74.80;;;;;;4174924;28;20053;-64
2022/01/23 07:40:52;;;;;;;3.78;2.60;;;16.20;75.50;;;;;;4175968;28;20079;-64
2022/01/23 07:43:25;;;;;;;3.13;2.90;;;16.20;74.60;;;;;;4174474;28;20147;-64
2022/01/23 07:46:06;;;;;;;3.38;3.08;;;16.20;74.50;;;;;;4175998;28;20045;-68
2022/01/23 07:48:49;;;;;;;5.57;3.13;;;16.20;74.70;;;;;;4174690;28;20041;-68
2022/01/23 07:51:33;;;;;;;6.70;4.13;;;16.10;74.90;;;;;;4151518;28;20060;-68
2022/01/23 07:54:05;;;;;;;;;;;16.10;75.00;;;;;;4158653;28;20080;-68
2022/01/23 07:56:42;;;;;;;3.65;3.10;;;16.20;75.00;;;;;;4157933;28;19933;-67
2022/01/23 07:59:24;;;;;;;4.70;3.47;;;16.20;74.70;;;;;;4164956;28;20048;-67
2022/01/23 08:02:05;;;;;;;3.58;3.20;;;16.20;74.60;;;;;;4174401;28;20049;-67
2022/01/23 08:04:38;;;;;;;;;;;16.20;74.50;;;;;;4174388;28;20060;-67
2022/01/23 08:07:09;;;;;;;2.90;2.70;;;16.20;74.50;;;;;;4176165;28;19928;-68
2022/01/23 08:09:52;;;;;;;4.35;3.15;;;16.10;74.40;;;;;;4175589;28;20049;-68
2022/01/23 08:12:17;;;;;;;4.15;3.00;;;16.10;74.40;;;;;;4169990;28;20049;-68
2022/01/23 08:14:40;;;;;;;2.90;2.70;;;16.10;74.50;;;;;;4175976;28;20588;-68
2022/01/23 08:17:02;;;;;;;4.25;2.97;;;16.00;74.60;;;;;;4175445;28;20056;-68
2022/01/23 08:19:24;;;;;;;3.17;2.80;;;16.00;74.80;;;;;;4178474;28;20120;-69
2022/01/23 08:21:47;;;;;;;3.60;2.90;;;15.90;74.90;;;;;;4189580;28;20105;-68
2022/01/23 08:24:12;;;;;;;2.75;2.45;;;15.90;75.10;;;;;;4174097;28;20049;-68
2022/01/23 08:26:37;;;;;;;3.10;2.90;;;15.80;75.10;;;;;;4169468;28;20103;-68
2022/01/23 08:29:00;;;;;;;3.28;2.67;;;15.80;75.10;;;;;;4157715;28;20077;-68
2022/01/23 08:31:23;;;;;;;3.92;2.22;;;15.70;75.40;;;;;;4165616;28;20488;-68
2022/01/23 08:33:45;;;;;;;2.35;2.25;;;15.80;75.70;;;;;;4192498;28;20052;-65
2022/01/23 08:36:08;;;;;;;2.55;2.38;;;15.80;75.60;;;;;;4192522;28;20131;-65
2022/01/23 08:38:30;;;;;;;2.53;2.33;;;15.80;75.20;;;;;;4192164;28;20124;-64
2022/01/23 08:43:49;;;;;;;2.05;1.85;;;15.90;74.60;;;;;;4124292;28;20054;-65
2022/01/23 08:46:11;;;;;;;2.53;2.33;;;15.90;74.30;;;;;;4124636;28;20077;-65
2022/01/23 08:48:35;;;;;;;4.05;2.13;;;15.90;74.30;;;;;;4145523;28;20072;-64
2022/01/23 08:50:57;;;;;;;2.20;2.00;;;15.90;74.10;;;;;;4175805;28;20053;-64
2022/01/23 08:53:19;;;;;;;2.63;1.92;;;15.90;74.20;;;;;;4175569;28;20059;-64
2022/01/23 08:55:41;;;;;;;2.83;2.03;;;15.90;74.20;;;;;;4175818;28;20049;-65
2022/01/23 08:58:03;;;;;;;2.65;2.33;;;15.80;74.20;;;;;;4175631;28;20051;-65
2022/01/23 09:00:25;;;;;;;3.00;2.38;;;15.80;74.30;;;;;;4175398;28;20048;-64
2022/01/23 09:02:47;;;;;;;3.85;2.08;;;15.70;74.50;;;;;;4175376;28;20466;-64
2022/01/23 09:05:11;;;;;;;2.40;2.25;;;15.70;74.60;;;;;;4175152;28;20156;-65
2022/01/23 09:07:33;;;;;;;2.20;1.90;;;15.70;74.70;;;;;;4175620;28;20052;-65
2022/01/23 09:10:01;;;;;;;2.85;2.20;;;15.70;74.70;;;;;;4175191;28;20504;-64
2022/01/23 09:12:41;;;;;;;2.75;1.90;;;15.70;74.60;;;;;;4175711;28;20072;-64
2022/01/23 09:15:03;;;;;;;2.60;2.08;;;15.70;74.60;;;;;;4175270;28;20084;-64
2022/01/23 09:17:25;;;;;;;2.58;2.10;;;15.80;74.30;;;;;;4175575;28;20049;-64
2022/01/23 09:19:47;;;;;;;2.70;1.95;;;15.90;73.70;;;;;;4173596;28;20472;-64
2022/01/23 09:22:11;;;;;;;1.70;1.60;;;16.00;73.30;;;;;;4175490;28;20495;-64
2022/01/23 09:24:33;;;;;;;1.65;1.63;;;16.10;72.70;;;;;;4175750;28;20040;-65
2022/01/23 09:27:02;;;;;;;2.00;1.90;;;16.10;72.40;;;;;;4175614;28;20048;-65
2022/01/23 09:29:31;;;;;;;1.75;1.65;;;16.20;72.10;;;;;;4177788;28;20059;-64
2022/01/23 09:31:54;;;;;;;1.80;1.70;;;16.20;71.90;;;;;;4182426;28;20048;-64
2022/01/23 09:34:16;;;;;;;2.40;1.70;;;16.20;71.70;;;;;;4191882;28;20052;-65
2022/01/23 09:36:38;;;;;;;2.30;1.50;;;16.20;71.70;;;;;;4177412;28;20483;-65
2022/01/23 09:39:04;;;;;;;3.40;1.50;;;16.10;71.80;;;;;;4178753;28;20044;-64
2022/01/23 09:41:49;;;;;;;1.60;1.50;;;16.10;72.10;;;;;;4176634;28;20067;-65
2022/01/23 09:44:14;;;;;;;1.60;1.50;;;16.20;71.90;;;;;;4176850;28;20049;-64
2022/01/23 09:46:37;;;;;;;5.10;1.92;;;16.50;70.80;;;;;;4178072;28;20448;-65
2022/01/23 09:49:01;;;;;;;1.70;1.60;;;17.00;68.70;;;;;;4178056;28;20380;-65
2022/01/23 09:51:25;;;;;;;2.67;1.25;;;17.50;66.50;;;;;;4177283;28;20091;-65
2022/01/23 09:53:48;;;;;;;2.67;1.45;;;18.00;64.30;;;;;;4178010;28;20103;-65
2022/01/23 09:56:14;;;;;;;2.90;1.55;;;18.60;62.50;;;;;;4184458;28;20041;-65
2022/01/23 09:58:39;;;;;;;2.22;1.30;;;19.20;60.20;;;;;;4194560;28;20078;-65
2022/01/23 10:01:02;;;;;;;1.58;1.48;;;19.80;58.50;;;;;;4194738;28;20045;-66
2022/01/23 10:03:24;;;;;;;1.40;1.30;;;20.30;57.10;;;;;;4182751;28;20076;-65
2022/01/23 10:05:48;;;;;;;1.42;1.33;;;20.70;56.10;;;;;;4177783;28;20457;-65
2022/01/23 10:08:11;;;;;;;1.48;1.38;;;20.90;55.40;;;;;;4177777;28;20053;-65
2022/01/23 10:10:38;;;;;;;3.03;1.90;;;21.00;55.00;;;;;;4177640;28;20064;-65
2022/01/23 10:13:03;;;;;;;1.90;1.80;;;21.00;54.90;;;;;;4177850;28;20135;-65
2022/01/23 10:15:27;;;;;;;1.80;1.70;;;20.90;55.10;;;;;;4177947;28;20060;-65
2022/01/23 10:17:49;;;;;;;1.98;1.88;;;20.70;55.50;;;;;;4176942;28;20079;-65
2022/01/23 10:20:13;;;;;;;1.77;1.67;;;20.50;55.90;;;;;;4177652;28;20040;-66
2022/01/23 10:22:36;;;;;;;1.67;1.58;;;20.30;56.40;;;;;;4177070;28;20057;-64
2022/01/23 10:25:06;;;;;;;1.10;1.00;;;20.10;57.00;;;;;;4177356;28;20052;-66
2022/01/23 10:27:28;;;;;;;1.30;0.80;;;19.80;57.60;;;;;;4177438;28;20424;-68
2022/01/23 10:29:51;;;;;;;2.95;0.60;;;19.70;58.20;;;;;;4177646;28;20132;-65
2022/01/23 10:32:18;;;;;;;0.52;0.45;;;19.60;58.50;;;;;;4178608;28;20052;-65
2022/01/23 10:34:49;;;;;;;0.40;0.30;;;19.60;58.50;;;;;;4177548;28;20045;-65
2022/01/23 10:37:12;;;;;;;0.90;0.20;;;19.60;58.50;;;;;;4177198;28;20091;-66
2022/01/23 10:39:41;;;;;;;0.47;0.47;;;19.60;58.50;;;;;;4193491;28;20049;-65
2022/01/23 10:42:48;;;;;;;0.32;0.32;;;19.60;58.40;;;;;;4192892;28;20153;-65
2022/01/23 10:48:24;;;;;;;0.35;0.35;;;19.60;58.30;;;;;;4177337;28;20041;-64
2022/01/23 10:50:46;;;;;;;0.73;0.70;;;19.70;58.30;;;;;;4176767;28;20049;-65
2022/01/23 10:53:09;;;;;;;1.23;1.15;;;19.70;58.20;;;;;;4177188;28;20056;-65
2022/01/23 10:55:34;;;;;;;1.17;1.08;;;19.70;58.10;;;;;;4177949;28;20481;-65
2022/01/23 10:58:00;;;;;;;0.60;0.60;;;19.80;58.00;;;;;;4176815;28;20433;-64
2022/01/23 11:00:26;;;;;;;2.25;1.17;;;19.80;57.90;;;;;;4176975;28;20049;-65
2022/01/23 11:02:48;;;;;;;1.00;0.47;;;19.90;57.80;;;;;;4176850;28;20064;-65
2022/01/23 11:05:12;;;;;;;0.50;0.50;;;19.90;57.70;;;;;;4176871;28;20526;-65
2022/01/23 11:07:34;;;;;;;0.50;0.20;;;19.90;57.70;;;;;;4176561;28;20091;-65
2022/01/23 11:09:58;;;;;;;0.20;0.20;;;19.90;57.50;;;;;;4177172;28;20106;-66
2022/01/23 11:12:32;;;;;;;0.28;0.28;;;19.90;57.30;;;;;;4176902;28;20114;-65
2022/01/23 11:17:51;;;;;;;0.35;0.10;;;19.90;56.60;;;;;;4176628;28;20040;-65
2022/01/23 11:20:13;;;;;;;0.22;0.22;;;19.90;56.50;;;;;;4176791;28;20048;-65
2022/01/23 11:22:36;;;;;;;0.10;0.10;;;19.90;56.40;;;;;;4160353;28;20047;-65
2022/01/23 11:25:00;;;;;;;0.80;0.20;;;19.90;56.30;;;;;;4176394;28;20045;-65
2022/01/23 11:27:23;;;;;;;0.20;0.20;;;19.90;56.20;;;;;;4176867;28;20412;-65
2022/01/23 11:29:56;;;;;;;0.30;0.30;;;20.00;56.00;;;;;;4176506;28;20053;-64
2022/01/23 11:32:19;;;;;;;0.30;0.30;;;20.00;55.80;;;;;;4176215;28;20067;-65
2022/01/23 11:34:43;;;;;;;0.40;0.30;;;19.90;55.90;;;;;;4160099;28;20064;-65
2022/01/23 11:37:05;;;;;;;0.60;0.30;;;19.90;56.50;;;;;;4159888;28;20045;-65
2022/01/23 11:39:39;;;;;;;0.90;0.20;;;19.80;57.10;;;;;;4160404;28;20049;-65
2022/01/23 11:50:50;;;;;;;1.75;0.40;;;19.90;57.80;;;;;;4159830;28;20691;-65
2022/01/23 11:53:49;;;;;;;0.50;0.50;;;20.00;57.60;;;;;;4168932;28;20045;-65
2022/01/23 11:56:41;;;;;;;1.05;0.75;;;20.10;57.50;;;;;;4161404;28;20045;-65
2022/01/23 11:59:33;;;;;;;1.13;0.70;;;20.10;57.30;;;;;;4138776;28;20540;-64
2022/01/23 12:02:29;;;;;;;1.08;0.68;;;20.10;57.20;;;;;;4174053;28;20045;-64
2022/01/23 12:05:21;;;;;;;1.08;0.50;;;20.10;57.00;;;;;;4176400;28;20439;-66
2022/01/23 12:08:06;;;;;;;0.45;0.45;;;20.00;57.30;;;;;;4179397;28;20488;-66
2022/01/23 12:10:46;;;;;;;0.95;0.30;;;19.90;57.30;;;;;;4175551;28;20041;-65
2022/01/23 12:13:54;;;;;;;0.40;0.40;;;19.90;57.60;;;;;;4175690;28;20059;-65
2022/01/23 12:16:25;;;;;;;2.55;0.75;;;19.90;57.70;;;;;;4173865;28;20496;-65
2022/01/23 12:18:49;;;;;;;0.60;0.60;;;19.90;57.90;;;;;;4182402;28;20105;-64
2022/01/23 12:21:27;;;;;;;0.40;0.40;;;19.90;57.60;;;;;;4189832;28;20102;-65
2022/01/23 12:24:00;;;;;;;1.23;0.57;;;19.90;57.50;;;;;;4175546;28;20484;-65
2022/01/23 12:26:22;;;;;;;0.68;0.45;;;19.90;57.40;;;;;;4175394;28;20551;-65
2022/01/23 12:28:45;;;;;;;0.45;0.45;;;19.90;57.30;;;;;;4175821;28;20044;-64
2022/01/23 12:31:21;;;;;;;0.30;0.30;;;19.90;57.20;;;;;;4179855;28;20522;-65
2022/01/23 12:33:49;;;;;;;0.50;0.50;;;19.90;57.30;;;;;;4190849;28;20524;-64
2022/01/23 12:36:22;;;;;;;0.47;0.45;;;19.80;57.40;;;;;;4188778;28;20049;-64
2022/01/23 12:38:47;;;;;;;0.43;0.43;;;19.80;58.30;;;;;;4175430;28;20049;-64
2022/01/23 12:41:23;;;;;;;0.30;0.20;;;19.70;57.70;;;;;;4175861;28;20049;-64
2022/01/23 12:43:45;;;;;;;1.02;0.40;;;19.60;57.90;;;;;;4175347;28;20480;-64
2022/01/23 12:46:10;;;;;;;0.93;0.50;;;19.50;58.20;;;;;;4172946;28;20422;-64
2022/01/23 12:48:45;;;;;;;1.38;0.50;;;19.40;58.60;;;;;;4175813;28;20052;-64
2022/01/23 12:51:09;;;;;;;1.17;0.50;;;19.40;58.70;;;;;;4176240;28;20465;-64
2022/01/23 12:53:37;;;;;;;0.88;0.32;;;19.40;58.80;;;;;;4188906;28;20048;-65
2022/01/23 12:56:04;;;;;;;0.98;0.52;;;19.40;58.70;;;;;;4192038;28;20048;-64
2022/01/23 12:58:28;;;;;;;0.80;0.80;;;19.40;58.40;;;;;;4192379;28;20056;-64
2022/01/23 13:00:51;;;;;;;2.03;0.70;;;19.40;58.40;;;;;;4174651;28;20041;-65
2022/01/23 13:03:13;;;;;;;1.95;0.57;;;19.50;58.40;;;;;;4175144;28;20048;-65
2022/01/23 13:05:35;;;;;;;0.60;0.60;;;19.50;58.10;;;;;;4178472;28;20048;-65
2022/01/23 13:08:08;;;;;;;0.70;0.70;;;19.60;57.90;;;;;;4178658;28;20048;-65
2022/01/23 13:10:50;;;;;;;0.75;0.60;;;19.70;57.80;;;;;;4178043;28;20410;-65
2022/01/23 13:13:23;;;;;;;1.25;0.80;;;19.70;57.50;;;;;;4187904;28;20131;-65
2022/01/23 13:18:43;;;;;;;1.05;1.00;;;19.80;59.00;;;;;;4161851;28;20049;-66
2022/01/23 13:32:17;;;;;;;1.23;0.90;;;19.80;57.90;;;;;;4162011;28;20053;-65
2022/01/23 13:34:41;;;;;;;1.45;0.88;;;19.90;57.70;;;;;;4161725;28;20076;-65
2022/01/23 13:37:06;;;;;;;1.00;0.80;;;19.90;57.50;;;;;;4180015;28;20052;-65
2022/01/23 13:39:32;;;;;;;2.03;0.70;;;19.80;57.40;;;;;;4193512;28;20059;-65
2022/01/23 13:42:26;;;;;;;0.80;0.80;;;19.70;57.60;;;;;;4194926;28;20464;-65
2022/01/23 13:52:57;;;;;;;0.60;0.60;;;19.80;57.60;;;;;;4177991;28;20091;-64
2022/01/23 13:58:33;;;;;;;1.38;0.60;;;19.80;57.30;;;;;;4146205;28;20052;-64
2022/01/23 14:00:59;;;;;;;1.00;1.00;;;19.70;57.40;;;;;;4179357;28;20049;-65
2022/01/23 14:03:23;;;;;;;2.45;1.10;;;19.60;57.70;;;;;;4192153;28;20883;-65
2022/01/23 14:05:45;;;;;;;1.50;0.65;;;19.60;57.90;;;;;;4179184;28;20128;-65
2022/01/23 14:08:07;;;;;;;0.82;0.70;;;19.60;58.40;;;;;;4184628;28;20052;-65
2022/01/23 14:10:32;;;;;;;1.58;0.70;;;19.60;58.40;;;;;;4178235;28;20045;-65
2022/01/23 14:12:55;;;;;;;1.88;0.98;;;19.70;58.10;;;;;;4177596;28;20107;-65
2022/01/23 14:15:20;;;;;;;0.70;0.70;;;19.80;57.80;;;;;;4177316;28;22518;-65
2022/01/23 14:17:42;;;;;;;1.60;1.20;;;19.80;57.60;;;;;;4177453;28;20045;-65
2022/01/23 14:20:09;;;;;;;1.38;0.98;;;19.80;57.40;;;;;;4177656;28;20110;-65
2022/01/23 14:22:33;;;;;;;1.38;0.90;;;19.80;57.30;;;;;;4176752;28;20052;-65
2022/01/23 14:25:07;;;;;;;1.15;1.15;;;19.80;57.40;;;;;;4175650;28;20041;-64
2022/01/23 14:27:33;;;;;;;2.63;1.35;;;19.70;57.40;;;;;;4180136;28;20128;-65
2022/01/23 14:29:56;;;;;;;1.00;1.00;;;19.60;57.90;;;;;;4192220;28;20044;-65
2022/01/23 14:32:25;;;;;;;2.60;1.10;;;19.60;58.50;;;;;;4193979;28;20541;-64
2022/01/23 14:34:47;;;;;;;1.60;1.50;;;19.60;58.80;;;;;;4190909;28;20048;-64
2022/01/23 14:37:11;;;;;;;2.92;1.20;;;19.60;59.10;;;;;;4177097;28;20118;-64
2022/01/23 14:39:32;;;;;;;1.40;1.30;;;19.60;59.40;;;;;;4177114;28;20453;-65
2022/01/23 14:41:55;;;;;;;3.42;1.30;;;19.60;59.50;;;;;;4177019;28;20053;-64
2022/01/23 14:44:20;;;;;;;1.50;1.40;;;19.60;59.40;;;;;;4177630;28;20431;-64
2022/01/23 14:46:43;;;;;;;1.98;1.88;;;19.70;59.30;;;;;;4179807;28;20115;-64
2022/01/23 14:49:10;;;;;;;1.83;1.65;;;19.70;59.30;;;;;;4194560;28;20071;-64
2022/01/23 14:51:34;;;;;;;1.88;1.55;;;19.70;59.30;;;;;;4193757;28;20063;-64
2022/01/23 14:53:58;;;;;;;1.83;1.73;;;19.70;59.50;;;;;;4193787;28;20045;-64
2022/01/23 14:56:20;;;;;;;2.05;1.80;;;19.60;59.60;;;;;;4191829;28;20102;-64
2022/01/23 14:58:44;;;;;;;2.30;2.10;;;19.50;59.80;;;;;;4177134;28;20045;-65
2022/01/23 15:01:10;;;;;;;4.40;2.10;;;19.50;60.20;;;;;;4177415;28;20118;-64
2022/01/23 15:03:32;;;;;;;2.42;2.10;;;19.50;60.30;;;;;;4177100;28;20473;-65
2022/01/23 15:06:08;;;;;;;2.10;2.00;;;19.50;60.30;;;;;;4176407;28;20047;-64
2022/01/23 15:08:31;;;;;;;2.15;2.00;;;19.60;60.20;;;;;;4176649;28;20470;-65
2022/01/23 15:10:56;;;;;;;2.28;2.13;;;19.60;60.00;;;;;;4177208;28;20048;-65
2022/01/23 15:13:19;;;;;;;2.35;2.15;;;19.60;59.90;;;;;;4176545;28;20057;-65
2022/01/23 15:15:42;;;;;;;4.35;2.40;;;19.70;59.90;;;;;;4176651;28;20072;-64
2022/01/23 15:18:05;;;;;;;2.47;2.20;;;19.70;59.70;;;;;;4176585;28;20041;-64
2022/01/23 15:20:28;;;;;;;2.15;1.92;;;19.70;59.70;;;;;;4160168;28;20057;-64
2022/01/23 15:22:50;;;;;;;1.95;1.75;;;19.70;59.80;;;;;;4159796;28;20045;-65
2022/01/23 15:25:13;;;;;;;2.60;2.40;;;19.60;59.90;;;;;;4164010;28;20132;-65
2022/01/23 15:27:38;;;;;;;1.75;1.65;;;19.60;60.20;;;;;;4176128;28;20044;-63